West Columbia, SC

12:18 PM EDT on September 02, 2015 (GMT -0400)
Columbia Metro | | Change Station
CLOSE
Current Station
Airport
Location: Columbia,
Elevation: 223 ft
Nearby Weather Stations

Elev 223 ft 33.94 °N, 81.12 °W | Updated 22 minutes ago

Scattered Clouds
Scattered Clouds
90 °F
Feels Like 94 °F
N
0
Wind Variable Wind from North

Today
High -- | Low -- °F
--% Chance of Precip.
Yesterday
High -- | Low -- °F
Precip. -- in
6:58 AM 7:49 PM
Waning Gibbous, 79% visible
Pressure 30.07 in
Visibility 10.0 miles
Clouds Scattered Clouds 5000 ft
Scattered Clouds 25000 ft
Heat Index 94 °F
Dew Point 69 °F
Humidity 50%
Rainfall 0.00 in
Snow Depth Not available.
UV 7 out of 12
Pollen 8.60 out of 12
Air Quality Not available.
Flu Activity Not available.
METAR KCAE 021556Z 00000KT 10SM SCT050 SCT250 32/21 A3008 RMK AO2 SLP182 T03220206
Pressure 30.07 in
Visibility 10.0 miles
Clouds Scattered Clouds 5000 ft
Scattered Clouds 25000 ft
Heat Index 94 °F
Dew Point 69 °F
Humidity 50%
Rainfall 0.00 in
Snow Depth Not available.
UV 7 out of 12
Pollen 8.60 out of 12
Air Quality Not available.
Flu Activity Not available.
METAR KCAE 021556Z 00000KT 10SM SCT050 SCT250 32/21 A3008 RMK AO2 SLP182 T03220206

10-Day Weather Forecast

×

Almanac

Astronomy

Sep. 02, 2015 Rise Set
Actual Time
Civil Twilight
Nautical Twilight
Astronomical Twilight
Moon
Length of Visible Light
Length of Day
Tomorrow will be .
, % of the Moon is Illuminated

Today's Extremes

State Highs State Lows

Community

WunderPhotos

Upload Photos

1,851,776 photos uploaded!

WunderBlogs® & News

Nearby

Air Quality

  Air Quality AQ Index Pollutant
Not available.

Snow Depth

Station Depth Elevation

Earthquake Activity

City Distance Mag. Time & Date
Minimum magnitude displayed is 2.5.

Coastal Water Temperatures

Place Temperature

Stations

Nearby Weather Stations

Station Location Temp. Windchill Dew Point Humidity Wind Precip. Elev Updated Type